Kezdőlap
METAR-TAF:

METAR-TAF

Repülőterek :

Fairbanks, Alaszka, Amerikai Egyesült Államok

földrajzi szélesség: 64-48-14N, földrajzi hosszúság: 147-52-34W, magasság: 132 m

Jelenlegi meteorológiai megfigyelések

A jelentés 12 perccel ezelõtt készült, 17:53 UTC
Szélcsend
Hőmérséklet -20°C
Páratartalom 77%
Légköri nyomás 1007 hPa
Látótávolság: 16.1 km
Derült ég

METAR: PAFA 151753Z 00000KT 10SM CLR M20/M23 A2973 RMK AO2 SLP084 T12001233 11178 21211 56006

Idő: 09:05 (18:05 UTC)

Előrejelzés

A jelentés 45 perccel ezelõtt készült, 17:20 UTC
Az előrejelzés 15-én 18 óra UTC és 16-én 24 óra UTC között érvényes
Északkeleti szél 3 kt
Látótávolság: 10 km
Derült ég

TAF: PAFA 151720Z 1518/1624 04003KT P6SM SKC

Meteorológiai megfigyelések és előrejelzések több, mint 4000 repülőtéren (METAR és TAF jelentéseket).

A térképen piros és sárga pontok jelzik az elérhető meteorológiai állomásokat.

Mozgassa az egeret a pont fölött, hogy megjelenjen az állomás neve.

Azután kattintson az időjárási megfigyelések és előrejelzések megtekintéséhez.

A térkép megváltoztatása: kattintson a fekete keresztel jelölt zöld gombra ráközelítéshez, a vonallal jelölt zöld gombra távolításhoz, vagy a zöld nyilakra a szomszédos térképek eléréséhez.


METAR-TAF: